sensor_id;sensor_type;location;lat;lon;timestamp;P1;durP1;ratioP1;P2;durP2;ratioP2
2123;SDS011;1068;52.460;13.528;2023-07-24T00:01:59;2.83;;;2.63;;
2123;SDS011;1068;52.460;13.528;2023-07-24T00:04:26;2.53;;;2.40;;
2123;SDS011;1068;52.460;13.528;2023-07-24T00:06:53;2.87;;;2.67;;
2123;SDS011;1068;52.460;13.528;2023-07-24T00:09:20;4.40;;;2.70;;
2123;SDS011;1068;52.460;13.528;2023-07-24T00:11:47;3.00;;;2.80;;
2123;SDS011;1068;52.460;13.528;2023-07-24T00:14:15;2.97;;;2.60;;
2123;SDS011;1068;52.460;13.528;2023-07-24T00:16:43;2.80;;;2.60;;
2123;SDS011;1068;52.460;13.528;2023-07-24T00:19:09;2.80;;;2.60;;
2123;SDS011;1068;52.460;13.528;2023-07-24T00:21:36;2.43;;;2.23;;
2123;SDS011;1068;52.460;13.528;2023-07-24T00:24:04;2.93;;;2.73;;
2123;SDS011;1068;52.460;13.528;2023-07-24T00:26:31;2.70;;;2.50;;
2123;SDS011;1068;52.460;13.528;2023-07-24T00:28:58;3.23;;;2.93;;
2123;SDS011;1068;52.460;13.528;2023-07-24T00:31:27;2.50;;;2.30;;
2123;SDS011;1068;52.460;13.528;2023-07-24T00:33:54;3.90;;;3.37;;
2123;SDS011;1068;52.460;13.528;2023-07-24T00:36:21;6.17;;;2.40;;
2123;SDS011;1068;52.460;13.528;2023-07-24T00:38:48;3.93;;;2.90;;
2123;SDS011;1068;52.460;13.528;2023-07-24T00:41:14;2.57;;;2.37;;
2123;SDS011;1068;52.460;13.528;2023-07-24T00:43:41;2.30;;;2.20;;
2123;SDS011;1068;52.460;13.528;2023-07-24T00:46:09;3.60;;;3.30;;
2123;SDS011;1068;52.460;13.528;2023-07-24T00:48:37;3.40;;;3.10;;
2123;SDS011;1068;52.460;13.528;2023-07-24T00:51:04;4.97;;;2.77;;
2123;SDS011;1068;52.460;13.528;2023-07-24T00:53:32;2.67;;;2.47;;
2123;SDS011;1068;52.460;13.528;2023-07-24T00:55:59;5.23;;;3.10;;
2123;SDS011;1068;52.460;13.528;2023-07-24T00:58:26;5.90;;;2.73;;
2123;SDS011;1068;52.460;13.528;2023-07-24T01:00:53;3.47;;;3.17;;
2123;SDS011;1068;52.460;13.528;2023-07-24T01:03:20;2.83;;;2.63;;
2123;SDS011;1068;52.460;13.528;2023-07-24T01:05:50;3.10;;;2.57;;
2123;SDS011;1068;52.460;13.528;2023-07-24T01:08:17;3.37;;;2.83;;
2123;SDS011;1068;52.460;13.528;2023-07-24T01:10:44;3.20;;;2.80;;
2123;SDS011;1068;52.460;13.528;2023-07-24T01:13:14;3.20;;;3.00;;
2123;SDS011;1068;52.460;13.528;2023-07-24T01:15:42;3.40;;;3.10;;
2123;SDS011;1068;52.460;13.528;2023-07-24T01:18:11;3.63;;;3.10;;
2123;SDS011;1068;52.460;13.528;2023-07-24T01:20:39;4.40;;;3.40;;
2123;SDS011;1068;52.460;13.528;2023-07-24T01:23:18;3.10;;;2.90;;
2123;SDS011;1068;52.460;13.528;2023-07-24T01:25:52;3.33;;;3.03;;
2123;SDS011;1068;52.460;13.528;2023-07-24T01:28:20;3.10;;;2.90;;
2123;SDS011;1068;52.460;13.528;2023-07-24T01:30:47;2.70;;;2.50;;
2123;SDS011;1068;52.460;13.528;2023-07-24T01:33:14;3.70;;;3.00;;
2123;SDS011;1068;52.460;13.528;2023-07-24T01:35:41;3.33;;;2.50;;
2123;SDS011;1068;52.460;13.528;2023-07-24T01:38:09;3.10;;;2.87;;
2123;SDS011;1068;52.460;13.528;2023-07-24T01:40:36;2.60;;;2.40;;
2123;SDS011;1068;52.460;13.528;2023-07-24T01:43:04;3.33;;;3.00;;
2123;SDS011;1068;52.460;13.528;2023-07-24T01:45:31;3.10;;;2.80;;
2123;SDS011;1068;52.460;13.528;2023-07-24T01:47:58;3.07;;;2.60;;
2123;SDS011;1068;52.460;13.528;2023-07-24T01:50:26;2.40;;;2.20;;
2123;SDS011;1068;52.460;13.528;2023-07-24T01:52:52;5.37;;;2.83;;
2123;SDS011;1068;52.460;13.528;2023-07-24T01:55:19;2.90;;;2.70;;
2123;SDS011;1068;52.460;13.528;2023-07-24T01:57:46;4.77;;;2.13;;
2123;SDS011;1068;52.460;13.528;2023-07-24T02:00:15;2.50;;;2.30;;
2123;SDS011;1068;52.460;13.528;2023-07-24T02:02:42;3.03;;;2.17;;
2123;SDS011;1068;52.460;13.528;2023-07-24T02:05:09;3.73;;;2.63;;
2123;SDS011;1068;52.460;13.528;2023-07-24T02:07:36;2.00;;;1.90;;
2123;SDS011;1068;52.460;13.528;2023-07-24T02:10:03;2.97;;;2.20;;
2123;SDS011;1068;52.460;13.528;2023-07-24T02:12:30;2.50;;;2.30;;
2123;SDS011;1068;52.460;13.528;2023-07-24T02:14:57;2.60;;;1.97;;
2123;SDS011;1068;52.460;13.528;2023-07-24T02:17:26;2.20;;;2.10;;
2123;SDS011;1068;52.460;13.528;2023-07-24T02:19:52;3.97;;;2.50;;
2123;SDS011;1068;52.460;13.528;2023-07-24T02:22:19;2.40;;;2.20;;
2123;SDS011;1068;52.460;13.528;2023-07-24T02:24:46;2.47;;;2.10;;
2123;SDS011;1068;52.460;13.528;2023-07-24T02:27:24;2.50;;;2.30;;
2123;SDS011;1068;52.460;13.528;2023-07-24T02:29:51;1.83;;;1.73;;
2123;SDS011;1068;52.460;13.528;2023-07-24T02:32:18;2.50;;;2.30;;
2123;SDS011;1068;52.460;13.528;2023-07-24T02:34:47;2.53;;;2.33;;
2123;SDS011;1068;52.460;13.528;2023-07-24T02:37:14;2.03;;;1.93;;
2123;SDS011;1068;52.460;13.528;2023-07-24T02:39:41;5.33;;;1.93;;
2123;SDS011;1068;52.460;13.528;2023-07-24T02:42:08;3.13;;;2.30;;
2123;SDS011;1068;52.460;13.528;2023-07-24T02:44:35;2.77;;;2.10;;
2123;SDS011;1068;52.460;13.528;2023-07-24T02:47:03;2.43;;;2.23;;
2123;SDS011;1068;52.460;13.528;2023-07-24T02:49:30;3.57;;;2.10;;
2123;SDS011;1068;52.460;13.528;2023-07-24T02:51:58;2.63;;;2.43;;
2123;SDS011;1068;52.460;13.528;2023-07-24T02:54:25;2.57;;;2.37;;
2123;SDS011;1068;52.460;13.528;2023-07-24T02:56:52;1.70;;;1.60;;
2123;SDS011;1068;52.460;13.528;2023-07-24T02:59:19;2.77;;;2.57;;
2123;SDS011;1068;52.460;13.528;2023-07-24T03:01:46;2.00;;;1.87;;
2123;SDS011;1068;52.460;13.528;2023-07-24T03:04:13;2.13;;;2.00;;
2123;SDS011;1068;52.460;13.528;2023-07-24T03:06:40;2.53;;;1.97;;
2123;SDS011;1068;52.460;13.528;2023-07-24T03:09:08;2.20;;;2.00;;
2123;SDS011;1068;52.460;13.528;2023-07-24T03:11:35;2.00;;;1.80;;
2123;SDS011;1068;52.460;13.528;2023-07-24T03:14:02;2.20;;;1.77;;
2123;SDS011;1068;52.460;13.528;2023-07-24T03:16:29;3.27;;;1.70;;
2123;SDS011;1068;52.460;13.528;2023-07-24T03:18:55;2.50;;;2.13;;
2123;SDS011;1068;52.460;13.528;2023-07-24T03:21:22;2.43;;;2.23;;
2123;SDS011;1068;52.460;13.528;2023-07-24T03:23:49;1.83;;;1.73;;
2123;SDS011;1068;52.460;13.528;2023-07-24T03:26:18;1.70;;;1.60;;
2123;SDS011;1068;52.460;13.528;2023-07-24T03:28:45;2.10;;;1.47;;
2123;SDS011;1068;52.460;13.528;2023-07-24T03:31:11;1.80;;;1.70;;
2123;SDS011;1068;52.460;13.528;2023-07-24T03:33:38;3.90;;;1.63;;
2123;SDS011;1068;52.460;13.528;2023-07-24T03:36:05;2.43;;;1.80;;
2123;SDS011;1068;52.460;13.528;2023-07-24T03:38:32;2.70;;;1.90;;
2123;SDS011;1068;52.460;13.528;2023-07-24T03:41:00;1.97;;;1.87;;
2123;SDS011;1068;52.460;13.528;2023-07-24T03:43:28;1.93;;;1.60;;
2123;SDS011;1068;52.460;13.528;2023-07-24T03:45:55;2.30;;;1.77;;
2123;SDS011;1068;52.460;13.528;2023-07-24T03:48:22;1.33;;;1.23;;
2123;SDS011;1068;52.460;13.528;2023-07-24T03:50:49;2.20;;;2.07;;
2123;SDS011;1068;52.460;13.528;2023-07-24T03:53:16;1.60;;;1.50;;
2123;SDS011;1068;52.460;13.528;2023-07-24T03:55:43;1.33;;;1.23;;
2123;SDS011;1068;52.460;13.528;2023-07-24T03:58:10;1.47;;;1.37;;
2123;SDS011;1068;52.460;13.528;2023-07-24T04:00:38;1.73;;;1.63;;
2123;SDS011;1068;52.460;13.528;2023-07-24T04:03:05;1.20;;;1.10;;
2123;SDS011;1068;52.460;13.528;2023-07-24T04:05:33;1.50;;;1.40;;
2123;SDS011;1068;52.460;13.528;2023-07-24T04:08:00;4.40;;;1.40;;
2123;SDS011;1068;52.460;13.528;2023-07-24T04:10:27;2.37;;;1.60;;
2123;SDS011;1068;52.460;13.528;2023-07-24T04:12:55;1.40;;;1.30;;
2123;SDS011;1068;52.460;13.528;2023-07-24T04:15:22;1.20;;;1.10;;
2123;SDS011;1068;52.460;13.528;2023-07-24T04:17:51;1.63;;;1.13;;
2123;SDS011;1068;52.460;13.528;2023-07-24T04:20:18;1.30;;;1.20;;
2123;SDS011;1068;52.460;13.528;2023-07-24T04:22:45;1.20;;;1.10;;
2123;SDS011;1068;52.460;13.528;2023-07-24T04:25:12;1.73;;;1.60;;
2123;SDS011;1068;52.460;13.528;2023-07-24T04:27:38;1.40;;;1.30;;
2123;SDS011;1068;52.460;13.528;2023-07-24T04:30:06;1.70;;;1.60;;
2123;SDS011;1068;52.460;13.528;2023-07-24T04:32:33;2.60;;;1.80;;
2123;SDS011;1068;52.460;13.528;2023-07-24T04:35:01;1.80;;;1.50;;
2123;SDS011;1068;52.460;13.528;2023-07-24T04:37:28;1.70;;;1.60;;
2123;SDS011;1068;52.460;13.528;2023-07-24T04:39:55;1.40;;;1.30;;
2123;SDS011;1068;52.460;13.528;2023-07-24T04:42:22;1.97;;;1.23;;
2123;SDS011;1068;52.460;13.528;2023-07-24T04:44:49;1.50;;;1.40;;
2123;SDS011;1068;52.460;13.528;2023-07-24T04:47:16;1.30;;;1.20;;
2123;SDS011;1068;52.460;13.528;2023-07-24T04:49:43;1.90;;;1.50;;
2123;SDS011;1068;52.460;13.528;2023-07-24T04:52:11;1.30;;;1.17;;
2123;SDS011;1068;52.460;13.528;2023-07-24T04:54:38;1.33;;;1.23;;
2123;SDS011;1068;52.460;13.528;2023-07-24T04:57:05;1.40;;;1.30;;
2123;SDS011;1068;52.460;13.528;2023-07-24T04:59:32;1.20;;;1.10;;
2123;SDS011;1068;52.460;13.528;2023-07-24T05:01:59;1.30;;;1.20;;
2123;SDS011;1068;52.460;13.528;2023-07-24T05:04:26;0.90;;;0.90;;
2123;SDS011;1068;52.460;13.528;2023-07-24T05:06:53;1.40;;;1.30;;
2123;SDS011;1068;52.460;13.528;2023-07-24T05:09:21;1.40;;;1.30;;
2123;SDS011;1068;52.460;13.528;2023-07-24T05:11:48;1.40;;;1.30;;
2123;SDS011;1068;52.460;13.528;2023-07-24T05:14:15;1.03;;;0.90;;
2123;SDS011;1068;52.460;13.528;2023-07-24T05:16:42;1.13;;;1.03;;
2123;SDS011;1068;52.460;13.528;2023-07-24T05:19:09;1.33;;;1.20;;
2123;SDS011;1068;52.460;13.528;2023-07-24T05:21:36;1.37;;;1.20;;
2123;SDS011;1068;52.460;13.528;2023-07-24T05:24:03;8.57;;;1.87;;
2123;SDS011;1068;52.460;13.528;2023-07-24T05:26:32;2.17;;;1.00;;
2123;SDS011;1068;52.460;13.528;2023-07-24T05:28:58;1.40;;;1.30;;
2123;SDS011;1068;52.460;13.528;2023-07-24T05:31:25;1.30;;;1.20;;
2123;SDS011;1068;52.460;13.528;2023-07-24T05:33:52;1.33;;;1.03;;
2123;SDS011;1068;52.460;13.528;2023-07-24T05:36:19;1.37;;;1.27;;
2123;SDS011;1068;52.460;13.528;2023-07-24T05:38:46;1.63;;;1.03;;
2123;SDS011;1068;52.460;13.528;2023-07-24T05:41:13;1.20;;;1.10;;
2123;SDS011;1068;52.460;13.528;2023-07-24T05:43:41;2.50;;;1.30;;
2123;SDS011;1068;52.460;13.528;2023-07-24T05:46:08;1.60;;;1.50;;
2123;SDS011;1068;52.460;13.528;2023-07-24T05:48:35;1.93;;;1.20;;
2123;SDS011;1068;52.460;13.528;2023-07-24T05:51:02;1.63;;;1.20;;
2123;SDS011;1068;52.460;13.528;2023-07-24T05:53:29;2.60;;;1.23;;
2123;SDS011;1068;52.460;13.528;2023-07-24T05:55:57;1.40;;;1.30;;
2123;SDS011;1068;52.460;13.528;2023-07-24T05:58:24;1.20;;;1.10;;
2123;SDS011;1068;52.460;13.528;2023-07-24T06:00:53;1.30;;;1.10;;
2123;SDS011;1068;52.460;13.528;2023-07-24T06:03:20;1.20;;;1.10;;
2123;SDS011;1068;52.460;13.528;2023-07-24T06:05:50;1.70;;;1.60;;
2123;SDS011;1068;52.460;13.528;2023-07-24T06:08:17;1.63;;;1.20;;
2123;SDS011;1068;52.460;13.528;2023-07-24T06:10:45;1.20;;;1.10;;
2123;SDS011;1068;52.460;13.528;2023-07-24T06:13:12;1.33;;;1.23;;
2123;SDS011;1068;52.460;13.528;2023-07-24T06:15:42;1.47;;;1.30;;
2123;SDS011;1068;52.460;13.528;2023-07-24T06:18:10;1.10;;;1.00;;
2123;SDS011;1068;52.460;13.528;2023-07-24T06:20:37;4.63;;;2.27;;
2123;SDS011;1068;52.460;13.528;2023-07-24T06:23:04;1.20;;;1.10;;
2123;SDS011;1068;52.460;13.528;2023-07-24T06:25:32;1.87;;;1.47;;
2123;SDS011;1068;52.460;13.528;2023-07-24T06:27:59;1.60;;;1.50;;
2123;SDS011;1068;52.460;13.528;2023-07-24T06:30:26;2.50;;;1.50;;
2123;SDS011;1068;52.460;13.528;2023-07-24T06:32:54;2.27;;;1.70;;
2123;SDS011;1068;52.460;13.528;2023-07-24T06:35:24;6.60;;;1.80;;
2123;SDS011;1068;52.460;13.528;2023-07-24T06:37:51;1.70;;;1.60;;
2123;SDS011;1068;52.460;13.528;2023-07-24T06:40:18;1.70;;;1.60;;
2123;SDS011;1068;52.460;13.528;2023-07-24T06:42:48;1.80;;;1.70;;
2123;SDS011;1068;52.460;13.528;2023-07-24T06:45:15;1.83;;;1.73;;
2123;SDS011;1068;52.460;13.528;2023-07-24T06:47:42;2.33;;;2.00;;
2123;SDS011;1068;52.460;13.528;2023-07-24T06:50:09;2.10;;;2.00;;
2123;SDS011;1068;52.460;13.528;2023-07-24T06:52:37;2.47;;;1.90;;
2123;SDS011;1068;52.460;13.528;2023-07-24T06:55:05;2.13;;;2.03;;
2123;SDS011;1068;52.460;13.528;2023-07-24T06:57:32;2.27;;;1.67;;
2123;SDS011;1068;52.460;13.528;2023-07-24T06:59:59;2.43;;;2.03;;
2123;SDS011;1068;52.460;13.528;2023-07-24T07:02:26;2.17;;;2.07;;
2123;SDS011;1068;52.460;13.528;2023-07-24T07:04:53;2.17;;;1.97;;
2123;SDS011;1068;52.460;13.528;2023-07-24T07:07:20;2.30;;;2.10;;
2123;SDS011;1068;52.460;13.528;2023-07-24T07:09:49;2.47;;;2.23;;
2123;SDS011;1068;52.460;13.528;2023-07-24T07:12:16;2.30;;;2.13;;
2123;SDS011;1068;52.460;13.528;2023-07-24T07:14:43;2.43;;;2.33;;
2123;SDS011;1068;52.460;13.528;2023-07-24T07:17:09;2.00;;;1.90;;
2123;SDS011;1068;52.460;13.528;2023-07-24T07:19:36;2.90;;;2.60;;
2123;SDS011;1068;52.460;13.528;2023-07-24T07:22:04;2.10;;;2.00;;
2123;SDS011;1068;52.460;13.528;2023-07-24T07:24:31;2.90;;;2.70;;
2123;SDS011;1068;52.460;13.528;2023-07-24T07:26:59;2.40;;;2.20;;
2123;SDS011;1068;52.460;13.528;2023-07-24T07:29:26;2.33;;;2.13;;
2123;SDS011;1068;52.460;13.528;2023-07-24T07:31:53;3.10;;;2.17;;
2123;SDS011;1068;52.460;13.528;2023-07-24T07:34:20;2.43;;;2.00;;
2123;SDS011;1068;52.460;13.528;2023-07-24T07:36:47;2.00;;;1.90;;
2123;SDS011;1068;52.460;13.528;2023-07-24T07:39:14;2.70;;;2.50;;
2123;SDS011;1068;52.460;13.528;2023-07-24T07:41:41;2.13;;;2.03;;
2123;SDS011;1068;52.460;13.528;2023-07-24T07:44:09;2.20;;;2.10;;
2123;SDS011;1068;52.460;13.528;2023-07-24T07:46:36;2.33;;;2.13;;
2123;SDS011;1068;52.460;13.528;2023-07-24T07:49:03;2.10;;;2.00;;
2123;SDS011;1068;52.460;13.528;2023-07-24T07:51:30;2.47;;;2.27;;
2123;SDS011;1068;52.460;13.528;2023-07-24T07:53:57;2.23;;;2.10;;
2123;SDS011;1068;52.460;13.528;2023-07-24T07:56:24;1.70;;;1.60;;
2123;SDS011;1068;52.460;13.528;2023-07-24T07:58:51;2.30;;;2.10;;
2123;SDS011;1068;52.460;13.528;2023-07-24T08:01:20;2.20;;;2.10;;
2123;SDS011;1068;52.460;13.528;2023-07-24T08:03:47;2.53;;;2.03;;
2123;SDS011;1068;52.460;13.528;2023-07-24T08:06:14;5.33;;;2.03;;
2123;SDS011;1068;52.460;13.528;2023-07-24T08:08:41;2.03;;;1.93;;
2123;SDS011;1068;52.460;13.528;2023-07-24T08:11:08;1.83;;;1.73;;
2123;SDS011;1068;52.460;13.528;2023-07-24T08:13:35;2.27;;;1.57;;
2123;SDS011;1068;52.460;13.528;2023-07-24T08:16:02;2.30;;;1.87;;
2123;SDS011;1068;52.460;13.528;2023-07-24T08:18:30;1.80;;;1.70;;
2123;SDS011;1068;52.460;13.528;2023-07-24T08:20:57;2.00;;;1.90;;
2123;SDS011;1068;52.460;13.528;2023-07-24T08:23:24;1.53;;;1.43;;
2123;SDS011;1068;52.460;13.528;2023-07-24T08:25:51;2.57;;;2.13;;
2123;SDS011;1068;52.460;13.528;2023-07-24T08:28:19;2.00;;;1.90;;
2123;SDS011;1068;52.460;13.528;2023-07-24T08:30:46;1.70;;;1.60;;
2123;SDS011;1068;52.460;13.528;2023-07-24T08:33:13;1.93;;;1.83;;
2123;SDS011;1068;52.460;13.528;2023-07-24T08:35:41;2.23;;;1.67;;
2123;SDS011;1068;52.460;13.528;2023-07-24T08:38:08;4.83;;;1.70;;
2123;SDS011;1068;52.460;13.528;2023-07-24T08:40:36;1.60;;;1.50;;
2123;SDS011;1068;52.460;13.528;2023-07-24T08:43:05;2.53;;;1.53;;
2123;SDS011;1068;52.460;13.528;2023-07-24T08:45:33;1.87;;;1.77;;
2123;SDS011;1068;52.460;13.528;2023-07-24T08:48:00;1.87;;;1.77;;
2123;SDS011;1068;52.460;13.528;2023-07-24T08:50:27;2.20;;;1.63;;
2123;SDS011;1068;52.460;13.528;2023-07-24T08:52:57;1.50;;;1.40;;
2123;SDS011;1068;52.460;13.528;2023-07-24T08:55:24;1.60;;;1.50;;
2123;SDS011;1068;52.460;13.528;2023-07-24T08:57:52;1.60;;;1.50;;
2123;SDS011;1068;52.460;13.528;2023-07-24T09:00:19;1.53;;;1.43;;
2123;SDS011;1068;52.460;13.528;2023-07-24T09:02:46;2.07;;;1.97;;
2123;SDS011;1068;52.460;13.528;2023-07-24T09:05:13;2.00;;;1.40;;
2123;SDS011;1068;52.460;13.528;2023-07-24T09:07:41;1.73;;;1.27;;
2123;SDS011;1068;52.460;13.528;2023-07-24T09:10:10;2.43;;;1.63;;
2123;SDS011;1068;52.460;13.528;2023-07-24T09:12:37;1.83;;;1.67;;
2123;SDS011;1068;52.460;13.528;2023-07-24T09:15:06;2.47;;;1.57;;
2123;SDS011;1068;52.460;13.528;2023-07-24T09:17:33;1.50;;;1.40;;
2123;SDS011;1068;52.460;13.528;2023-07-24T09:20:00;1.97;;;1.87;;
2123;SDS011;1068;52.460;13.528;2023-07-24T09:22:30;1.53;;;1.40;;
2123;SDS011;1068;52.460;13.528;2023-07-24T09:24:57;2.40;;;1.50;;
2123;SDS011;1068;52.460;13.528;2023-07-24T09:27:27;1.70;;;1.47;;
2123;SDS011;1068;52.460;13.528;2023-07-24T09:29:54;1.77;;;1.67;;
2123;SDS011;1068;52.460;13.528;2023-07-24T09:32:22;1.70;;;1.50;;
2123;SDS011;1068;52.460;13.528;2023-07-24T09:34:49;2.77;;;1.30;;
2123;SDS011;1068;52.460;13.528;2023-07-24T09:37:26;2.73;;;2.20;;
2123;SDS011;1068;52.460;13.528;2023-07-24T09:39:53;2.23;;;2.03;;
2123;SDS011;1068;52.460;13.528;2023-07-24T09:45:08;2.13;;;1.50;;
2123;SDS011;1068;52.460;13.528;2023-07-24T09:47:35;1.77;;;1.67;;
2123;SDS011;1068;52.460;13.528;2023-07-24T09:50:02;2.90;;;1.60;;
2123;SDS011;1068;52.460;13.528;2023-07-24T09:52:30;5.10;;;2.13;;
2123;SDS011;1068;52.460;13.528;2023-07-24T09:54:59;1.60;;;1.50;;
2123;SDS011;1068;52.460;13.528;2023-07-24T09:57:28;3.33;;;1.33;;
2123;SDS011;1068;52.460;13.528;2023-07-24T09:59:57;1.70;;;1.50;;
2123;SDS011;1068;52.460;13.528;2023-07-24T10:02:26;2.03;;;1.93;;
2123;SDS011;1068;52.460;13.528;2023-07-24T10:04:54;2.17;;;2.00;;
2123;SDS011;1068;52.460;13.528;2023-07-24T10:07:22;2.00;;;1.90;;
2123;SDS011;1068;52.460;13.528;2023-07-24T10:09:49;4.13;;;2.13;;
2123;SDS011;1068;52.460;13.528;2023-07-24T10:12:16;2.10;;;2.00;;
2123;SDS011;1068;52.460;13.528;2023-07-24T10:14:44;2.57;;;2.37;;
2123;SDS011;1068;52.460;13.528;2023-07-24T10:17:23;2.47;;;2.07;;
2123;SDS011;1068;52.460;13.528;2023-07-24T10:19:52;2.73;;;2.53;;
2123;SDS011;1068;52.460;13.528;2023-07-24T10:22:28;2.73;;;2.53;;
2123;SDS011;1068;52.460;13.528;2023-07-24T10:24:55;3.20;;;2.90;;
2123;SDS011;1068;52.460;13.528;2023-07-24T10:27:23;5.53;;;2.70;;
2123;SDS011;1068;52.460;13.528;2023-07-24T10:29:57;2.23;;;2.13;;
2123;SDS011;1068;52.460;13.528;2023-07-24T10:32:24;2.33;;;2.23;;
2123;SDS011;1068;52.460;13.528;2023-07-24T10:34:59;2.53;;;2.33;;
2123;SDS011;1068;52.460;13.528;2023-07-24T10:37:33;2.43;;;2.33;;
2123;SDS011;1068;52.460;13.528;2023-07-24T10:40:00;3.07;;;2.50;;
2123;SDS011;1068;52.460;13.528;2023-07-24T10:42:29;3.10;;;2.83;;
2123;SDS011;1068;52.460;13.528;2023-07-24T10:45:03;2.77;;;2.57;;
2123;SDS011;1068;52.460;13.528;2023-07-24T10:47:30;3.50;;;3.20;;
2123;SDS011;1068;52.460;13.528;2023-07-24T10:49:58;2.83;;;2.63;;
2123;SDS011;1068;52.460;13.528;2023-07-24T10:52:27;3.87;;;3.27;;
2123;SDS011;1068;52.460;13.528;2023-07-24T10:54:54;2.90;;;2.70;;
2123;SDS011;1068;52.460;13.528;2023-07-24T10:57:24;3.50;;;3.00;;
2123;SDS011;1068;52.460;13.528;2023-07-24T10:59:52;2.73;;;2.53;;
2123;SDS011;1068;52.460;13.528;2023-07-24T11:02:19;3.30;;;3.10;;
2123;SDS011;1068;52.460;13.528;2023-07-24T11:04:46;3.10;;;2.90;;
2123;SDS011;1068;52.460;13.528;2023-07-24T11:07:14;3.07;;;2.80;;
2123;SDS011;1068;52.460;13.528;2023-07-24T11:09:41;3.20;;;3.00;;
2123;SDS011;1068;52.460;13.528;2023-07-24T11:12:10;2.80;;;2.60;;
2123;SDS011;1068;52.460;13.528;2023-07-24T11:14:45;5.20;;;3.10;;
2123;SDS011;1068;52.460;13.528;2023-07-24T11:17:12;3.27;;;3.00;;
2123;SDS011;1068;52.460;13.528;2023-07-24T11:19:39;3.17;;;2.90;;
2123;SDS011;1068;52.460;13.528;2023-07-24T11:22:06;3.70;;;3.30;;
2123;SDS011;1068;52.460;13.528;2023-07-24T11:24:35;4.50;;;3.10;;
2123;SDS011;1068;52.460;13.528;2023-07-24T11:27:08;3.33;;;2.90;;
2123;SDS011;1068;52.460;13.528;2023-07-24T11:29:35;3.53;;;3.27;;
2123;SDS011;1068;52.460;13.528;2023-07-24T11:32:03;3.37;;;3.10;;
2123;SDS011;1068;52.460;13.528;2023-07-24T11:34:30;3.40;;;3.20;;
2123;SDS011;1068;52.460;13.528;2023-07-24T11:36:57;3.40;;;3.10;;
2123;SDS011;1068;52.460;13.528;2023-07-24T11:39:25;3.53;;;3.23;;
2123;SDS011;1068;52.460;13.528;2023-07-24T11:41:53;3.30;;;3.00;;
2123;SDS011;1068;52.460;13.528;2023-07-24T11:44:24;3.67;;;3.40;;
2123;SDS011;1068;52.460;13.528;2023-07-24T11:46:52;3.70;;;3.40;;
2123;SDS011;1068;52.460;13.528;2023-07-24T11:49:27;4.03;;;3.73;;
2123;SDS011;1068;52.460;13.528;2023-07-24T11:51:59;4.53;;;3.87;;
2123;SDS011;1068;52.460;13.528;2023-07-24T11:54:34;3.60;;;3.30;;
2123;SDS011;1068;52.460;13.528;2023-07-24T11:57:02;4.47;;;3.40;;
2123;SDS011;1068;52.460;13.528;2023-07-24T11:59:36;3.20;;;2.90;;
2123;SDS011;1068;52.460;13.528;2023-07-24T12:02:05;4.30;;;3.87;;
2123;SDS011;1068;52.460;13.528;2023-07-24T12:04:32;4.20;;;3.60;;
2123;SDS011;1068;52.460;13.528;2023-07-24T12:06:59;4.87;;;3.90;;
2123;SDS011;1068;52.460;13.528;2023-07-24T12:09:29;4.23;;;3.83;;
2123;SDS011;1068;52.460;13.528;2023-07-24T12:11:57;4.10;;;3.70;;
2123;SDS011;1068;52.460;13.528;2023-07-24T12:14:26;4.77;;;4.37;;
2123;SDS011;1068;52.460;13.528;2023-07-24T12:16:59;5.90;;;3.63;;
2123;SDS011;1068;52.460;13.528;2023-07-24T12:19:26;3.63;;;3.43;;
2123;SDS011;1068;52.460;13.528;2023-07-24T12:21:53;4.90;;;3.63;;
2123;SDS011;1068;52.460;13.528;2023-07-24T12:24:20;4.43;;;4.03;;
2123;SDS011;1068;52.460;13.528;2023-07-24T12:26:47;4.90;;;4.40;;
2123;SDS011;1068;52.460;13.528;2023-07-24T12:29:14;7.20;;;4.33;;
2123;SDS011;1068;52.460;13.528;2023-07-24T12:31:42;8.33;;;3.80;;
2123;SDS011;1068;52.460;13.528;2023-07-24T12:34:09;4.17;;;3.77;;
2123;SDS011;1068;52.460;13.528;2023-07-24T12:36:36;5.70;;;4.17;;
2123;SDS011;1068;52.460;13.528;2023-07-24T12:39:03;6.23;;;4.07;;
2123;SDS011;1068;52.460;13.528;2023-07-24T12:41:30;4.80;;;4.40;;
2123;SDS011;1068;52.460;13.528;2023-07-24T12:43:57;5.20;;;3.60;;
2123;SDS011;1068;52.460;13.528;2023-07-24T12:46:24;5.13;;;3.87;;
2123;SDS011;1068;52.460;13.528;2023-07-24T12:48:52;5.03;;;4.63;;
2123;SDS011;1068;52.460;13.528;2023-07-24T12:51:19;4.20;;;3.70;;
2123;SDS011;1068;52.460;13.528;2023-07-24T12:53:46;5.93;;;3.97;;
2123;SDS011;1068;52.460;13.528;2023-07-24T12:56:13;4.00;;;3.70;;
2123;SDS011;1068;52.460;13.528;2023-07-24T12:58:40;4.77;;;4.33;;
2123;SDS011;1068;52.460;13.528;2023-07-24T13:01:09;4.63;;;3.50;;
2123;SDS011;1068;52.460;13.528;2023-07-24T13:03:36;4.33;;;3.83;;
2123;SDS011;1068;52.460;13.528;2023-07-24T13:06:04;3.80;;;3.50;;
2123;SDS011;1068;52.460;13.528;2023-07-24T13:08:31;4.07;;;3.73;;
2123;SDS011;1068;52.460;13.528;2023-07-24T13:10:58;8.57;;;4.17;;
2123;SDS011;1068;52.460;13.528;2023-07-24T13:13:25;4.57;;;4.17;;
2123;SDS011;1068;52.460;13.528;2023-07-24T13:15:52;3.37;;;3.07;;
2123;SDS011;1068;52.460;13.528;2023-07-24T13:18:19;4.87;;;4.47;;
2123;SDS011;1068;52.460;13.528;2023-07-24T13:20:46;4.57;;;4.10;;
2123;SDS011;1068;52.460;13.528;2023-07-24T13:23:14;4.80;;;4.10;;
2123;SDS011;1068;52.460;13.528;2023-07-24T13:25:41;3.97;;;3.67;;
2123;SDS011;1068;52.460;13.528;2023-07-24T13:28:08;3.90;;;3.60;;
2123;SDS011;1068;52.460;13.528;2023-07-24T13:30:35;4.33;;;3.40;;
2123;SDS011;1068;52.460;13.528;2023-07-24T13:33:02;3.53;;;3.23;;
2123;SDS011;1068;52.460;13.528;2023-07-24T13:35:29;3.80;;;3.50;;
2123;SDS011;1068;52.460;13.528;2023-07-24T13:37:56;3.80;;;3.33;;
2123;SDS011;1068;52.460;13.528;2023-07-24T13:40:24;6.50;;;3.40;;
2123;SDS011;1068;52.460;13.528;2023-07-24T13:42:51;3.33;;;3.03;;
2123;SDS011;1068;52.460;13.528;2023-07-24T13:45:18;7.73;;;3.73;;
2123;SDS011;1068;52.460;13.528;2023-07-24T13:47:45;3.30;;;3.10;;
2123;SDS011;1068;52.460;13.528;2023-07-24T13:50:12;3.60;;;3.30;;
2123;SDS011;1068;52.460;13.528;2023-07-24T13:52:39;4.30;;;3.50;;
2123;SDS011;1068;52.460;13.528;2023-07-24T13:55:06;3.73;;;3.43;;
2123;SDS011;1068;52.460;13.528;2023-07-24T13:57:34;3.73;;;3.03;;
2123;SDS011;1068;52.460;13.528;2023-07-24T14:00:01;3.70;;;3.40;;
2123;SDS011;1068;52.460;13.528;2023-07-24T14:02:29;7.67;;;3.63;;
2123;SDS011;1068;52.460;13.528;2023-07-24T14:04:56;3.63;;;3.33;;
2123;SDS011;1068;52.460;13.528;2023-07-24T14:07:23;4.13;;;3.10;;
2123;SDS011;1068;52.460;13.528;2023-07-24T14:09:50;3.30;;;2.70;;
2123;SDS011;1068;52.460;13.528;2023-07-24T14:12:17;3.87;;;3.37;;
2123;SDS011;1068;52.460;13.528;2023-07-24T14:14:45;5.73;;;2.97;;
2123;SDS011;1068;52.460;13.528;2023-07-24T14:17:12;3.60;;;3.23;;
2123;SDS011;1068;52.460;13.528;2023-07-24T14:19:40;4.40;;;3.07;;
2123;SDS011;1068;52.460;13.528;2023-07-24T14:22:07;4.93;;;3.60;;
2123;SDS011;1068;52.460;13.528;2023-07-24T14:24:33;3.10;;;2.77;;
2123;SDS011;1068;52.460;13.528;2023-07-24T14:27:00;3.07;;;2.80;;
2123;SDS011;1068;52.460;13.528;2023-07-24T14:29:27;3.10;;;2.90;;
2123;SDS011;1068;52.460;13.528;2023-07-24T14:31:56;3.57;;;3.00;;
2123;SDS011;1068;52.460;13.528;2023-07-24T14:34:23;5.97;;;3.00;;
2123;SDS011;1068;52.460;13.528;2023-07-24T14:36:50;3.07;;;2.87;;
2123;SDS011;1068;52.460;13.528;2023-07-24T14:39:17;4.27;;;3.77;;
2123;SDS011;1068;52.460;13.528;2023-07-24T14:41:44;3.80;;;3.50;;
2123;SDS011;1068;52.460;13.528;2023-07-24T14:44:11;3.63;;;3.33;;
2123;SDS011;1068;52.460;13.528;2023-07-24T14:46:38;3.87;;;3.40;;
2123;SDS011;1068;52.460;13.528;2023-07-24T14:49:06;3.90;;;3.60;;
2123;SDS011;1068;52.460;13.528;2023-07-24T14:51:33;3.57;;;3.37;;
2123;SDS011;1068;52.460;13.528;2023-07-24T14:54:00;3.80;;;3.50;;
2123;SDS011;1068;52.460;13.528;2023-07-24T14:56:27;3.83;;;3.53;;
2123;SDS011;1068;52.460;13.528;2023-07-24T14:58:54;4.20;;;3.40;;
2123;SDS011;1068;52.460;13.528;2023-07-24T15:01:21;3.80;;;3.50;;
2123;SDS011;1068;52.460;13.528;2023-07-24T15:03:48;6.27;;;3.73;;
2123;SDS011;1068;52.460;13.528;2023-07-24T15:06:17;4.03;;;3.73;;